Time;durP1;ratioP1;P1;durP2;ratioP2;P2;SDS_P1;SDS_P2;PMS_P1;PMS_P2;Temp;Humidity;BMP_temperature;BMP_pressure;BME280_temperature;BME280_humidity;BME280_pressure;Samples;Min_cycle;Max_cycle;Signal;HPM_P1;HPM_P2
2021/07/04 00:00:41;;;;;;;5.85;5.20;;;20.10;99.90;;;;;;4992440;28;20105;-31
2021/07/04 00:03:10;;;;;;;5.43;4.82;;;20.10;99.90;;;;;;4991367;28;20026;-31
2021/07/04 00:05:38;;;;;;;6.25;4.90;;;20.10;99.90;;;;;;4991870;28;20215;-31
2021/07/04 00:08:05;;;;;;;5.85;5.25;;;20.20;99.90;;;;;;4992152;28;20044;-31
2021/07/04 00:10:33;;;;;;;5.55;5.03;;;20.10;99.90;;;;;;4992324;28;20044;-31
2021/07/04 00:12:59;;;;;;;5.70;5.10;;;20.10;99.90;;;;;;4990986;28;20050;-31
2021/07/04 00:15:28;;;;;;;5.30;4.80;;;20.10;99.90;;;;;;4991987;28;20505;-31
2021/07/04 00:17:54;;;;;;;5.30;4.80;;;20.10;99.90;;;;;;4991936;28;20034;-31
2021/07/04 00:20:22;;;;;;;4.85;4.45;;;20.10;99.90;;;;;;4991558;28;20026;-30
2021/07/04 00:22:51;;;;;;;5.13;4.63;;;20.10;99.90;;;;;;4991883;28;20073;-31
2021/07/04 00:25:17;;;;;;;5.47;4.97;;;20.00;99.90;;;;;;4991777;28;20041;-30
2021/07/04 00:27:43;;;;;;;5.60;5.10;;;20.00;99.90;;;;;;4990712;28;20410;-31
2021/07/04 00:30:11;;;;;;;5.82;5.32;;;20.00;99.90;;;;;;4991818;28;20453;-31
2021/07/04 00:32:38;;;;;;;5.95;5.35;;;20.00;99.90;;;;;;4991283;28;20034;-31
2021/07/04 00:35:05;;;;;;;5.45;4.95;;;19.90;99.90;;;;;;4990474;28;20381;-32
2021/07/04 00:37:31;;;;;;;4.75;4.32;;;19.80;99.90;;;;;;4991468;28;20027;-31
2021/07/04 00:39:56;;;;;;;5.07;4.57;;;19.80;99.90;;;;;;4990515;28;20045;-34
2021/07/04 00:42:22;;;;;;;5.25;4.47;;;19.70;99.90;;;;;;4991226;28;20568;-34
2021/07/04 00:44:54;;;;;;;5.57;4.45;;;19.70;99.90;;;;;;4990829;28;20097;-34
2021/07/04 00:47:20;;;;;;;4.75;4.18;;;19.60;99.90;;;;;;4991801;28;20026;-33
2021/07/04 00:49:47;;;;;;;3.97;3.67;;;19.60;99.90;;;;;;4990375;28;20543;-34
2021/07/04 00:52:12;;;;;;;4.10;3.70;;;19.60;99.90;;;;;;4991199;28;20443;-33
2021/07/04 00:54:38;;;;;;;3.78;3.40;;;19.50;99.90;;;;;;4990988;28;20113;-34
2021/07/04 00:57:04;;;;;;;4.55;4.00;;;19.50;99.90;;;;;;4990739;28;20031;-33
2021/07/04 00:59:31;;;;;;;4.30;3.90;;;19.50;99.90;;;;;;4991227;28;20045;-33
2021/07/04 01:01:59;;;;;;;3.90;3.53;;;19.40;99.90;;;;;;4990394;28;20085;-34
2021/07/04 01:04:27;;;;;;;3.95;3.55;;;19.40;99.90;;;;;;4990262;28;20033;-32
2021/07/04 01:06:53;;;;;;;3.63;3.33;;;19.40;99.90;;;;;;4990891;28;20095;-32
2021/07/04 01:09:19;;;;;;;4.20;3.80;;;19.40;99.90;;;;;;4990952;28;20019;-33
2021/07/04 01:11:45;;;;;;;4.32;3.92;;;19.40;99.90;;;;;;4990820;28;20029;-34
2021/07/04 01:14:10;;;;;;;3.97;3.67;;;19.40;99.90;;;;;;4991102;28;20097;-31
2021/07/04 01:16:36;;;;;;;4.10;3.70;;;19.40;99.90;;;;;;4990393;28;20038;-31
2021/07/04 01:19:03;;;;;;;4.20;3.80;;;19.40;99.90;;;;;;4990512;28;20011;-31
2021/07/04 01:21:30;;;;;;;3.83;3.53;;;19.30;99.90;;;;;;4991069;28;20015;-31
2021/07/04 01:23:56;;;;;;;4.15;3.78;;;19.30;99.90;;;;;;4989505;28;20028;-32
2021/07/04 01:26:21;;;;;;;5.22;4.25;;;19.30;99.90;;;;;;4991038;28;20010;-31
2021/07/04 01:28:47;;;;;;;4.30;3.90;;;19.40;99.90;;;;;;4990458;28;20022;-31
2021/07/04 01:31:12;;;;;;;5.90;4.20;;;19.40;99.90;;;;;;4990319;28;20058;-31
2021/07/04 01:33:38;;;;;;;4.22;3.80;;;19.40;99.90;;;;;;4991005;28;20030;-31
2021/07/04 01:36:10;;;;;;;4.45;4.00;;;19.50;99.90;;;;;;4989681;28;20042;-31
2021/07/04 01:38:36;;;;;;;4.50;4.10;;;19.50;99.90;;;;;;4990371;28;20026;-31
2021/07/04 01:41:02;;;;;;;4.15;3.85;;;19.50;99.90;;;;;;4989789;28;20386;-31
2021/07/04 01:43:28;;;;;;;4.88;4.18;;;19.50;99.90;;;;;;4990602;28;20026;-31
2021/07/04 01:45:53;;;;;;;4.05;3.75;;;19.50;99.90;;;;;;4989500;28;20019;-31
2021/07/04 01:48:19;;;;;;;5.03;4.38;;;19.50;99.90;;;;;;4991166;28;20026;-30
2021/07/04 01:50:48;;;;;;;4.57;4.18;;;19.50;99.90;;;;;;4989935;28;20014;-31
2021/07/04 01:53:17;;;;;;;5.15;4.65;;;19.50;99.90;;;;;;4989860;28;20023;-30
2021/07/04 01:55:49;;;;;;;5.38;4.30;;;19.60;99.90;;;;;;4990410;28;20117;-31
2021/07/04 01:58:15;;;;;;;4.75;3.95;;;19.60;99.90;;;;;;4990157;28;20054;-31
2021/07/04 02:00:43;;;;;;;4.43;3.97;;;19.60;99.90;;;;;;4989465;28;20132;-30
2021/07/04 02:03:12;;;;;;;4.90;4.50;;;19.60;99.90;;;;;;4990438;28;20385;-31
2021/07/04 02:05:38;;;;;;;4.88;4.30;;;19.70;99.90;;;;;;4989218;28;20026;-31
2021/07/04 02:08:05;;;;;;;4.22;3.88;;;19.70;99.90;;;;;;4989656;28;20168;-31
2021/07/04 02:10:36;;;;;;;4.45;4.05;;;19.70;99.90;;;;;;4990145;28;20038;-38
2021/07/04 02:13:04;;;;;;;4.33;4.00;;;19.70;99.90;;;;;;4989487;28;20014;-31
2021/07/04 02:15:32;;;;;;;4.38;3.97;;;19.70;99.90;;;;;;4994274;28;20116;-31
2021/07/04 02:18:07;;;;;;;4.63;4.22;;;19.70;99.90;;;;;;4992726;28;20065;-31
2021/07/04 02:20:36;;;;;;;4.30;3.90;;;19.70;99.90;;;;;;4993642;28;20921;-31
2021/07/04 02:23:15;;;;;;;3.72;3.42;;;19.80;99.90;;;;;;4993858;28;20081;-31
2021/07/04 02:25:43;;;;;;;5.13;3.67;;;19.80;99.90;;;;;;4993739;28;20018;-31
2021/07/04 02:28:12;;;;;;;3.90;3.60;;;19.80;99.90;;;;;;4993221;28;20042;-31
2021/07/04 02:30:39;;;;;;;3.85;3.47;;;19.80;99.90;;;;;;4994077;28;20469;-31
2021/07/04 02:33:13;;;;;;;4.03;3.50;;;19.80;99.90;;;;;;4993174;28;20084;-31
2021/07/04 02:35:41;;;;;;;4.15;3.63;;;19.80;99.90;;;;;;4993887;28;20030;-31
2021/07/04 02:38:08;;;;;;;3.70;3.40;;;19.80;99.90;;;;;;4993705;28;20033;-31
2021/07/04 02:40:35;;;;;;;3.78;3.38;;;19.80;99.90;;;;;;4993239;28;20150;-31
2021/07/04 02:43:01;;;;;;;5.43;3.60;;;19.80;99.90;;;;;;4993201;28;20030;-30
2021/07/04 02:45:33;;;;;;;3.80;3.50;;;19.80;99.90;;;;;;4993845;28;20034;-31
2021/07/04 02:47:59;;;;;;;4.10;3.80;;;19.80;99.90;;;;;;4992689;28;20385;-31
2021/07/04 02:50:25;;;;;;;3.72;3.42;;;19.80;99.90;;;;;;4994275;28;20019;-31
2021/07/04 02:52:52;;;;;;;4.03;3.72;;;19.80;99.90;;;;;;4992958;28;20410;-30
2021/07/04 02:55:19;;;;;;;4.05;3.65;;;19.90;99.90;;;;;;4992778;28;20035;-31
2021/07/04 02:57:45;;;;;;;3.95;3.65;;;19.90;99.90;;;;;;4992933;28;20139;-31
2021/07/04 03:00:14;;;;;;;4.38;3.97;;;19.90;99.90;;;;;;4993593;28;20026;-31
2021/07/04 03:02:43;;;;;;;4.20;3.80;;;19.80;99.90;;;;;;4992713;28;20022;-31
2021/07/04 03:05:10;;;;;;;4.65;4.18;;;19.80;99.90;;;;;;4982827;28;20034;-31
2021/07/04 03:07:39;;;;;;;4.47;4.07;;;19.70;99.90;;;;;;4993035;28;20051;-31
2021/07/04 03:10:10;;;;;;;5.47;3.78;;;19.70;99.90;;;;;;4992700;28;20029;-31
2021/07/04 03:12:36;;;;;;;4.20;3.65;;;19.60;99.90;;;;;;4992718;28;20030;-31
2021/07/04 03:15:05;;;;;;;4.07;3.78;;;19.60;99.90;;;;;;4992887;28;20037;-31
2021/07/04 03:17:33;;;;;;;6.03;4.03;;;19.60;99.90;;;;;;4992474;28;20034;-31
2021/07/04 03:19:59;;;;;;;4.28;3.88;;;19.50;99.90;;;;;;4992488;28;20022;-31
2021/07/04 03:22:24;;;;;;;7.05;5.50;;;19.50;99.90;;;;;;4992659;28;20022;-31
2021/07/04 03:24:50;;;;;;;4.53;4.15;;;19.50;99.90;;;;;;4992312;28;20258;-31
2021/07/04 03:27:16;;;;;;;4.25;3.85;;;19.40;99.90;;;;;;4992615;28;20026;-31
2021/07/04 03:29:41;;;;;;;5.18;4.68;;;19.40;99.90;;;;;;4991940;28;20069;-31
2021/07/04 03:32:07;;;;;;;5.07;4.57;;;19.40;99.90;;;;;;4992433;28;20046;-31
2021/07/04 03:34:34;;;;;;;4.85;4.35;;;19.40;99.90;;;;;;4993080;28;20405;-31
2021/07/04 03:37:00;;;;;;;5.20;4.80;;;19.40;99.90;;;;;;4991731;28;20101;-31
2021/07/04 03:39:28;;;;;;;4.90;4.50;;;19.40;99.90;;;;;;4992714;28;20019;-31
2021/07/04 03:41:53;;;;;;;5.30;4.80;;;19.50;99.90;;;;;;4992507;28;20034;-31
2021/07/04 03:44:19;;;;;;;7.40;5.15;;;19.50;99.90;;;;;;4991888;28;20496;-31
2021/07/04 03:46:46;;;;;;;5.53;5.03;;;19.50;99.90;;;;;;4992742;28;20066;-30
2021/07/04 03:49:12;;;;;;;5.18;4.70;;;19.50;99.90;;;;;;4992547;28;20022;-30
2021/07/04 03:51:37;;;;;;;6.35;5.05;;;19.50;99.90;;;;;;4992282;28;20064;-31
2021/07/04 03:54:03;;;;;;;6.30;4.90;;;19.50;99.90;;;;;;4992084;28;20151;-31
2021/07/04 03:56:29;;;;;;;5.88;5.07;;;19.50;99.90;;;;;;4991833;28;20549;-31
2021/07/04 03:58:54;;;;;;;6.07;5.55;;;19.50;99.90;;;;;;4991607;28;20022;-31
2021/07/04 04:01:20;;;;;;;6.22;5.63;;;19.50;99.90;;;;;;4992269;28;20408;-31
2021/07/04 04:03:47;;;;;;;5.80;5.20;;;19.50;99.90;;;;;;4992107;28;20116;-31
2021/07/04 04:06:13;;;;;;;5.90;5.30;;;19.60;99.90;;;;;;4991199;28;20018;-31
2021/07/04 04:08:40;;;;;;;5.93;5.38;;;19.50;99.90;;;;;;4992135;28;20077;-30
2021/07/04 04:11:06;;;;;;;5.80;5.30;;;19.60;99.90;;;;;;4991648;28;20077;-30
2021/07/04 04:13:32;;;;;;;7.72;5.30;;;19.60;99.90;;;;;;4992262;28;20023;-31
2021/07/04 04:15:57;;;;;;;5.57;4.95;;;19.60;99.90;;;;;;4990754;28;20034;-31
2021/07/04 04:18:23;;;;;;;7.22;5.72;;;19.60;99.90;;;;;;4992169;28;20022;-31
2021/07/04 04:20:48;;;;;;;6.07;5.47;;;19.60;99.90;;;;;;4991191;28;20025;-31
2021/07/04 04:23:14;;;;;;;6.47;5.80;;;19.60;99.90;;;;;;4991885;28;20041;-30
2021/07/04 04:25:39;;;;;;;6.00;5.38;;;19.60;99.90;;;;;;4990746;28;20035;-30
2021/07/04 04:28:05;;;;;;;5.55;5.05;;;19.60;99.90;;;;;;4992126;28;20027;-31
2021/07/04 04:30:34;;;;;;;6.90;6.25;;;19.60;99.90;;;;;;4991679;28;20103;-31
2021/07/04 04:33:00;;;;;;;6.20;5.60;;;19.60;99.90;;;;;;4990145;28;20030;-31
2021/07/04 04:35:26;;;;;;;7.22;6.18;;;19.70;99.90;;;;;;4991304;28;20038;-31
2021/07/04 04:37:55;;;;;;;7.20;6.50;;;19.70;99.90;;;;;;4990481;28;20101;-31
2021/07/04 04:40:21;;;;;;;5.82;5.22;;;19.70;99.90;;;;;;4991364;28;20120;-31
2021/07/04 04:42:46;;;;;;;6.63;6.03;;;19.70;99.90;;;;;;4991378;28;20651;-31
2021/07/04 04:45:12;;;;;;;7.03;6.43;;;19.70;99.90;;;;;;4991245;28;20033;-30
2021/07/04 04:47:38;;;;;;;7.93;6.30;;;19.70;99.90;;;;;;4990645;28;20022;-30
2021/07/04 04:50:07;;;;;;;7.10;5.45;;;19.80;99.90;;;;;;4991594;28;20076;-31
2021/07/04 04:52:34;;;;;;;7.07;6.40;;;19.80;99.90;;;;;;4991067;28;20386;-30
2021/07/04 04:54:59;;;;;;;6.80;6.20;;;19.80;99.90;;;;;;4989985;28;20023;-30
2021/07/04 04:57:25;;;;;;;6.75;6.13;;;19.80;99.90;;;;;;4991335;28;20034;-30
2021/07/04 04:59:50;;;;;;;6.53;5.93;;;19.90;99.90;;;;;;4991029;28;20030;-30
2021/07/04 05:02:15;;;;;;;7.00;6.30;;;19.90;99.90;;;;;;4990574;28;20015;-31
2021/07/04 05:04:44;;;;;;;6.88;6.18;;;19.90;99.90;;;;;;4991348;28;20065;-31
2021/07/04 05:07:09;;;;;;;7.13;6.43;;;20.00;99.90;;;;;;4990463;28;20727;-31
2021/07/04 05:09:35;;;;;;;6.50;5.53;;;19.90;99.90;;;;;;4990821;28;20018;-31
2021/07/04 05:12:04;;;;;;;7.63;6.13;;;20.00;99.90;;;;;;4990609;28;20015;-31
2021/07/04 05:14:32;;;;;;;6.53;5.93;;;20.00;99.90;;;;;;4990648;28;20038;-31
2021/07/04 05:16:58;;;;;;;7.75;7.13;;;20.00;99.90;;;;;;4989768;28;20042;-31
2021/07/04 05:19:23;;;;;;;7.50;6.78;;;20.00;99.90;;;;;;4991551;28;20069;-31
2021/07/04 05:21:49;;;;;;;6.25;5.75;;;20.00;99.90;;;;;;4989658;28;20093;-31
2021/07/04 05:24:17;;;;;;;6.80;6.10;;;20.00;99.90;;;;;;4991178;28;20046;-31
2021/07/04 05:26:42;;;;;;;8.13;7.32;;;20.00;99.90;;;;;;4990727;28;20037;-30
2021/07/04 05:29:08;;;;;;;7.40;6.68;;;20.10;99.90;;;;;;4989848;28;20030;-31
2021/07/04 05:31:34;;;;;;;7.25;6.50;;;20.10;99.90;;;;;;4991205;28;20032;-31
2021/07/04 05:34:00;;;;;;;7.05;6.35;;;20.20;99.90;;;;;;4989720;28;20054;-30
2021/07/04 05:36:25;;;;;;;8.05;7.35;;;20.30;99.90;;;;;;4990257;28;20058;-30
2021/07/04 05:38:52;;;;;;;10.05;7.82;;;20.30;99.90;;;;;;4989861;28;20058;-30
2021/07/04 05:41:18;;;;;;;11.23;8.95;;;20.40;99.90;;;;;;4990852;28;20026;-30
2021/07/04 05:43:47;;;;;;;9.60;8.70;;;20.40;99.90;;;;;;4989728;28;20050;-31
2021/07/04 05:46:12;;;;;;;9.90;8.90;;;20.50;99.90;;;;;;4990015;28;20534;-31
2021/07/04 05:48:43;;;;;;;9.55;8.55;;;20.50;99.90;;;;;;4990180;28;20113;-31
2021/07/04 05:51:09;;;;;;;9.43;8.50;;;20.50;99.90;;;;;;4989205;28;20121;-31
2021/07/04 05:53:40;;;;;;;12.18;9.00;;;20.40;99.90;;;;;;4990387;28;20106;-31
2021/07/04 05:56:05;;;;;;;10.32;9.25;;;20.40;99.90;;;;;;4990360;28;20034;-31
2021/07/04 05:58:31;;;;;;;9.80;8.65;;;20.50;99.90;;;;;;4989741;28;20050;-31
2021/07/04 06:00:56;;;;;;;12.50;9.65;;;20.60;99.90;;;;;;4989614;28;20035;-30
2021/07/04 06:03:32;;;;;;;12.40;11.10;;;20.60;99.90;;;;;;4990624;28;20482;-31
2021/07/04 06:05:58;;;;;;;13.48;11.18;;;20.60;99.90;;;;;;4989332;28;20065;-30
2021/07/04 06:08:23;;;;;;;13.20;10.77;;;20.60;99.90;;;;;;4990550;28;20054;-31
2021/07/04 06:10:51;;;;;;;15.68;12.95;;;20.60;99.90;;;;;;4989765;28;20077;-31
2021/07/04 06:13:17;;;;;;;17.88;13.55;;;20.70;99.90;;;;;;4989861;28;20027;-31
2021/07/04 06:15:42;;;;;;;18.80;15.70;;;20.70;99.90;;;;;;4990150;28;20517;-31
2021/07/04 06:18:11;;;;;;;21.35;17.42;;;20.70;99.90;;;;;;4989631;28;20030;-30
2021/07/04 06:20:36;;;;;;;25.48;19.85;;;20.70;99.90;;;;;;4990432;28;20022;-31
2021/07/04 06:23:02;;;;;;;24.85;20.35;;;20.60;99.90;;;;;;4989453;28;20117;-31
2021/07/04 06:25:27;;;;;;;28.80;22.20;;;20.70;99.90;;;;;;4989853;28;20072;-33
2021/07/04 06:27:53;;;;;;;24.75;19.90;;;20.70;99.90;;;;;;4990093;28;20026;-31
2021/07/04 06:30:19;;;;;;;27.15;21.75;;;20.70;99.90;;;;;;4990084;28;20385;-31
2021/07/04 06:32:48;;;;;;;26.17;20.48;;;20.80;99.90;;;;;;4989548;28;20113;-31
2021/07/04 06:35:16;;;;;;;26.38;21.02;;;20.90;99.90;;;;;;4989383;28;20425;-31
2021/07/04 06:37:45;;;;;;;20.25;17.05;;;20.90;99.90;;;;;;4990124;28;20410;-31
2021/07/04 06:40:11;;;;;;;25.05;21.33;;;21.00;99.90;;;;;;4989400;28;20015;-31
2021/07/04 06:42:40;;;;;;;27.35;22.55;;;20.90;99.90;;;;;;4990176;28;20026;-31
2021/07/04 06:45:09;;;;;;;27.35;23.27;;;20.80;99.90;;;;;;4989412;28;20414;-31
2021/07/04 06:47:35;;;;;;;26.02;21.17;;;20.70;99.90;;;;;;4989789;28;20026;-31
2021/07/04 06:50:00;;;;;;;24.88;20.85;;;20.70;99.90;;;;;;4989743;28;20026;-31
2021/07/04 06:52:26;;;;;;;27.13;21.77;;;20.80;99.90;;;;;;4990323;28;20525;-31
2021/07/04 06:54:55;;;;;;;25.35;21.77;;;20.90;99.90;;;;;;4989395;28;20046;-31
2021/07/04 06:57:27;;;;;;;24.48;20.40;;;21.00;99.90;;;;;;4990217;28;20105;-31
2021/07/04 06:59:56;;;;;;;24.92;20.98;;;21.00;99.90;;;;;;4989841;28;20494;-31
2021/07/04 07:02:22;;;;;;;24.65;21.23;;;20.90;99.90;;;;;;4989944;28;20011;-30
2021/07/04 07:04:47;;;;;;;23.02;19.83;;;20.90;99.90;;;;;;4992987;28;20536;-31
2021/07/04 07:07:15;;;;;;;23.33;20.52;;;20.80;99.90;;;;;;4992750;28;20061;-33
2021/07/04 07:09:41;;;;;;;24.40;20.52;;;20.70;99.90;;;;;;4993408;28;20022;-32
2021/07/04 07:12:06;;;;;;;21.38;18.02;;;20.70;99.90;;;;;;4992562;28;20033;-32
2021/07/04 07:14:32;;;;;;;21.48;18.35;;;20.70;99.90;;;;;;4993396;28;20121;-33
2021/07/04 07:16:58;;;;;;;26.33;20.73;;;20.80;99.90;;;;;;4992288;28;20110;-31
2021/07/04 07:19:32;;;;;;;25.27;20.60;;;20.90;99.90;;;;;;4993369;28;20030;-31
2021/07/04 07:21:58;;;;;;;27.52;22.45;;;20.90;99.90;;;;;;4992241;28;20018;-32
2021/07/04 07:24:29;;;;;;;26.08;22.13;;;20.90;99.90;;;;;;4993297;28;20026;-32
2021/07/04 07:26:55;;;;;;;26.60;19.98;;;20.90;99.90;;;;;;4992515;28;20033;-31
2021/07/04 07:29:21;;;;;;;27.13;21.98;;;20.80;99.90;;;;;;4992639;28;20015;-31
2021/07/04 07:31:46;;;;;;;25.48;21.02;;;20.80;99.90;;;;;;4992742;28;20539;-31
2021/07/04 07:34:12;;;;;;;31.92;25.65;;;20.70;99.90;;;;;;4992259;28;20825;-31
2021/07/04 07:36:39;;;;;;;31.60;24.45;;;20.70;99.90;;;;;;4990808;28;20482;-31
2021/07/04 07:39:05;;;;;;;26.83;22.48;;;20.70;99.90;;;;;;4992446;28;20026;-31
2021/07/04 07:41:31;;;;;;;25.73;20.75;;;20.80;99.90;;;;;;4992927;28;20049;-31
2021/07/04 07:43:57;;;;;;;36.90;27.67;;;20.90;99.90;;;;;;4991503;28;20474;-30
2021/07/04 07:46:23;;;;;;;32.47;24.85;;;21.00;99.90;;;;;;4993026;28;20026;-30
2021/07/04 07:48:48;;;;;;;26.33;21.85;;;21.00;99.90;;;;;;4992152;28;20023;-30
2021/07/04 07:51:14;;;;;;;28.00;21.48;;;21.00;99.90;;;;;;4991482;28;20113;-30
2021/07/04 07:53:41;;;;;;;31.00;22.52;;;21.00;99.90;;;;;;4991158;28;20115;-31
2021/07/04 07:56:09;;;;;;;22.67;18.08;;;21.10;99.90;;;;;;4991879;28;20045;-32
2021/07/04 07:58:35;;;;;;;23.65;19.90;;;21.20;99.90;;;;;;4991330;28;20038;-32
2021/07/04 08:01:00;;;;;;;25.52;20.63;;;21.20;99.90;;;;;;4991948;28;20014;-30
2021/07/04 08:03:26;;;;;;;20.85;18.02;;;21.20;99.90;;;;;;4992057;28;20057;-31
2021/07/04 08:05:51;;;;;;;20.08;17.13;;;21.30;99.90;;;;;;4991006;28;20018;-31
2021/07/04 08:08:17;;;;;;;20.85;16.95;;;21.40;99.90;;;;;;4991888;28;20473;-31
2021/07/04 08:10:42;;;;;;;24.95;19.70;;;21.50;99.90;;;;;;4990148;28;20014;-32
2021/07/04 08:13:08;;;;;;;24.60;19.67;;;21.60;99.90;;;;;;4989672;28;20473;-31
2021/07/04 08:15:34;;;;;;;19.70;17.05;;;21.60;99.90;;;;;;4990558;28;20298;-32
2021/07/04 08:17:59;;;;;;;25.33;20.95;;;21.70;99.90;;;;;;4989389;28;20032;-31
2021/07/04 08:20:25;;;;;;;20.30;17.23;;;21.70;99.90;;;;;;4990228;28;20027;-31
2021/07/04 08:22:51;;;;;;;24.85;20.80;;;21.80;99.90;;;;;;4989774;28;20025;-31
2021/07/04 08:25:17;;;;;;;20.75;17.95;;;21.80;99.90;;;;;;4990043;28;20027;-34
2021/07/04 08:27:43;;;;;;;26.05;19.83;;;21.90;99.90;;;;;;4991633;28;20026;-31
2021/07/04 08:30:13;;;;;;;25.83;21.10;;;22.00;99.90;;;;;;4990958;28;20019;-30
2021/07/04 08:32:39;;;;;;;28.05;22.45;;;22.10;99.90;;;;;;4991730;28;20093;-30
2021/07/04 08:35:06;;;;;;;25.50;21.10;;;22.20;99.90;;;;;;4990794;28;20477;-30
2021/07/04 08:37:32;;;;;;;26.25;20.33;;;22.20;99.90;;;;;;4986256;28;20097;-32
2021/07/04 08:40:00;;;;;;;21.08;17.48;;;22.10;99.90;;;;;;4989840;28;20022;-32
2021/07/04 08:42:26;;;;;;;21.63;19.15;;;22.20;99.90;;;;;;4991722;28;20534;-32
2021/07/04 08:44:53;;;;;;;21.25;17.67;;;22.20;99.90;;;;;;4990787;28;20109;-31
2021/07/04 08:47:20;;;;;;;22.20;17.30;;;22.20;99.90;;;;;;4978922;28;20023;-31
2021/07/04 08:49:48;;;;;;;20.08;16.35;;;22.30;99.90;;;;;;4976806;28;20506;-32
2021/07/04 08:52:14;;;;;;;19.77;16.30;;;22.40;99.90;;;;;;4983697;28;20034;-31
2021/07/04 08:54:40;;;;;;;18.88;16.02;;;22.70;99.90;;;;;;4988203;28;20426;-30
2021/07/04 08:57:10;;;;;;;20.77;17.13;;;22.80;99.90;;;;;;4986087;28;20096;-31
2021/07/04 08:59:36;;;;;;;19.60;15.93;;;23.00;99.90;;;;;;4986306;28;20101;-31
2021/07/04 09:02:02;;;;;;;17.60;15.07;;;23.10;99.90;;;;;;4987955;28;20030;-30
2021/07/04 09:04:28;;;;;;;17.13;14.85;;;23.10;99.90;;;;;;4991029;28;20113;-30
2021/07/04 09:06:54;;;;;;;15.65;13.68;;;23.10;99.90;;;;;;4989961;28;20428;-31
2021/07/04 09:09:26;;;;;;;15.25;13.65;;;23.10;99.90;;;;;;4991317;28;20042;-30
2021/07/04 09:11:53;;;;;;;18.75;16.02;;;23.10;99.60;;;;;;4990389;28;20026;-30
2021/07/04 09:14:45;;;;;;;16.13;14.18;;;23.00;99.40;;;;;;4990759;28;20029;-31
2021/07/04 09:17:13;;;;;;;15.52;13.93;;;23.10;99.60;;;;;;4987624;28;20026;-31
2021/07/04 09:19:50;;;;;;;17.25;14.45;;;23.10;99.60;;;;;;4989759;28;20473;-31
2021/07/04 09:22:16;;;;;;;13.35;11.88;;;23.20;99.50;;;;;;4989996;28;20022;-31
2021/07/04 09:24:48;;;;;;;13.15;11.40;;;23.40;99.40;;;;;;4990138;28;20101;-31
2021/07/04 09:27:17;;;;;;;;;;;23.50;99.20;;;;;;4990929;28;20096;-31
2021/07/04 09:29:53;;;;;;;13.70;12.30;;;23.70;99.10;;;;;;4988590;28;19935;-31
2021/07/04 09:32:27;;;;;;;16.00;13.77;;;23.70;98.90;;;;;;4990865;28;20025;-33
2021/07/04 09:35:13;;;;;;;12.93;11.55;;;23.80;98.90;;;;;;4987568;28;20034;-31
2021/07/04 09:37:41;;;;;;;14.38;12.82;;;23.80;98.80;;;;;;4989386;28;20418;-31
2021/07/04 09:40:27;;;;;;;15.52;13.32;;;23.90;98.70;;;;;;4990502;28;20022;-31
2021/07/04 09:43:16;;;;;;;14.65;13.13;;;23.90;98.60;;;;;;4989450;28;20085;-31
2021/07/04 09:45:47;;;;;;;13.85;12.10;;;23.90;98.60;;;;;;4989628;28;20022;-31
2021/07/04 09:48:30;;;;;;;15.07;13.48;;;23.90;98.20;;;;;;4986828;28;20022;-32
2021/07/04 09:51:03;;;;;;;13.63;11.07;;;23.90;98.30;;;;;;4989672;28;20377;-32
2021/07/04 09:53:51;;;;;;;17.38;15.30;;;23.80;98.20;;;;;;4990919;28;20037;-31
2021/07/04 09:56:20;;;;;;;15.85;14.15;;;23.80;98.10;;;;;;4989413;28;20053;-31
2021/07/04 09:58:47;;;;;;;16.88;14.18;;;23.70;98.00;;;;;;4989996;28;20034;-31
2021/07/04 10:01:35;;;;;;;15.80;14.10;;;23.60;98.20;;;;;;4990077;28;20383;-31
2021/07/04 10:04:01;;;;;;;14.88;13.20;;;23.50;98.30;;;;;;4986616;28;20181;-30
2021/07/04 10:06:27;;;;;;;13.65;12.02;;;23.50;98.40;;;;;;4988250;28;20038;-31
2021/07/04 10:08:53;;;;;;;13.20;11.35;;;23.50;98.50;;;;;;4988048;28;20034;-31
2021/07/04 10:11:19;;;;;;;13.48;12.05;;;23.50;98.40;;;;;;4987614;28;20129;-31
2021/07/04 10:13:47;;;;;;;13.40;12.00;;;23.60;98.10;;;;;;4980205;28;20030;-30
2021/07/04 10:16:15;;;;;;;15.45;13.70;;;23.80;98.10;;;;;;4987570;28;20769;-30
2021/07/04 10:18:48;;;;;;;13.45;11.90;;;23.80;98.00;;;;;;4989340;28;20058;-31
2021/07/04 10:21:14;;;;;;;16.08;11.82;;;23.80;97.90;;;;;;4983417;28;20034;-31
2021/07/04 10:23:49;;;;;;;12.35;10.82;;;23.80;97.70;;;;;;4987799;28;20413;-31
2021/07/04 10:26:16;;;;;;;12.30;10.52;;;23.80;97.60;;;;;;4968234;28;20615;-32
2021/07/04 10:28:43;;;;;;;12.82;10.70;;;23.80;97.30;;;;;;4983356;28;20658;-30
2021/07/04 10:31:13;;;;;;;10.82;9.73;;;23.90;97.30;;;;;;4988296;28;20478;-31
2021/07/04 10:33:39;;;;;;;10.90;9.80;;;24.00;97.30;;;;;;4988598;28;20069;-30
2021/07/04 10:36:17;;;;;;;10.68;9.55;;;24.20;97.20;;;;;;4990814;28;20054;-30
2021/07/04 10:38:45;;;;;;;11.55;10.32;;;24.40;97.10;;;;;;4993143;28;20109;-30
2021/07/04 10:41:35;;;;;;;10.82;9.77;;;24.60;96.70;;;;;;4993057;28;20374;-31
2021/07/04 10:44:07;;;;;;;10.15;9.15;;;24.70;96.30;;;;;;4983333;28;20065;-36
2021/07/04 10:46:46;;;;;;;10.55;9.43;;;24.60;96.40;;;;;;4993180;28;20018;-36
2021/07/04 10:49:18;;;;;;;9.50;7.90;;;24.60;96.50;;;;;;4991758;28;20441;-36
2021/07/04 10:51:57;;;;;;;10.35;9.18;;;24.60;96.50;;;;;;4993462;28;20073;-35
2021/07/04 10:54:38;;;;;;;12.13;10.88;;;24.60;96.40;;;;;;4993131;28;20112;-36
2021/07/04 10:57:07;;;;;;;11.20;10.05;;;24.70;96.30;;;;;;4992403;28;20046;-36
2021/07/04 10:59:32;;;;;;;12.40;10.10;;;24.70;96.10;;;;;;4993112;28;20066;-35
2021/07/04 11:02:00;;;;;;;10.70;9.60;;;24.80;95.90;;;;;;4992442;28;20058;-36
2021/07/04 11:04:31;;;;;;;12.05;10.85;;;24.90;96.10;;;;;;4993636;28;20021;-35
2021/07/04 11:07:02;;;;;;;11.68;10.48;;;25.00;95.80;;;;;;4991956;28;20049;-35
2021/07/04 11:09:52;;;;;;;9.52;8.63;;;25.00;95.80;;;;;;4993106;28;20023;-35
2021/07/04 11:12:34;;;;;;;9.60;8.70;;;25.10;96.00;;;;;;4992909;28;20034;-35
2021/07/04 11:15:11;;;;;;;9.82;8.93;;;25.10;96.10;;;;;;4991883;28;20022;-35
2021/07/04 11:18:04;;;;;;;11.32;10.07;;;25.00;96.10;;;;;;4993114;28;20212;-35
2021/07/04 11:20:38;;;;;;;10.02;9.00;;;25.00;96.20;;;;;;4993011;28;20026;-36
2021/07/04 11:23:10;;;;;;;10.40;9.27;;;24.90;96.20;;;;;;4991482;28;20117;-35
2021/07/04 11:25:41;;;;;;;;;;;24.90;96.20;;;;;;4992767;28;20026;-35
2021/07/04 11:28:15;;;;;;;10.13;9.00;;;24.90;96.20;;;;;;4991857;28;19916;-35
2021/07/04 11:30:45;;;;;;;8.93;8.02;;;24.90;95.90;;;;;;4992885;28;20018;-36
2021/07/04 11:33:25;;;;;;;10.45;9.38;;;25.00;96.00;;;;;;4992312;28;20535;-36
2021/07/04 11:35:56;;;;;;;7.20;6.50;;;25.00;95.60;;;;;;4992349;28;20033;-35
2021/07/04 11:38:23;;;;;;;6.85;6.15;;;25.10;95.40;;;;;;4992759;28;20025;-35
2021/07/04 11:40:49;;;;;;;6.95;6.25;;;25.10;95.00;;;;;;4992496;28;20060;-35
2021/07/04 11:43:17;;;;;;;7.63;6.80;;;25.20;95.00;;;;;;4991806;28;20430;-32
2021/07/04 11:45:51;;;;;;;5.85;5.32;;;25.30;94.60;;;;;;4992375;28;20062;-31
2021/07/04 11:48:18;;;;;;;6.47;5.65;;;25.40;93.70;;;;;;4991764;28;20058;-31
2021/07/04 11:51:05;;;;;;;7.40;6.70;;;25.50;93.70;;;;;;4991635;28;20034;-31
2021/07/04 11:53:31;;;;;;;8.20;7.40;;;25.70;93.60;;;;;;4992872;28;20080;-31
2021/07/04 11:55:59;;;;;;;8.00;7.20;;;25.70;93.50;;;;;;4991222;28;20424;-30
2021/07/04 11:58:33;;;;;;;8.95;6.90;;;25.70;93.60;;;;;;4991855;28;20039;-31
2021/07/04 12:00:59;;;;;;;7.07;6.38;;;25.70;93.40;;;;;;4991917;28;20033;-32
2021/07/04 12:03:28;;;;;;;9.13;6.85;;;25.70;93.60;;;;;;4991690;28;20026;-31
2021/07/04 12:06:05;;;;;;;7.10;6.47;;;25.70;93.60;;;;;;4991487;28;20010;-32
2021/07/04 12:08:59;;;;;;;7.55;6.78;;;25.80;93.70;;;;;;4992618;28;20042;-32
2021/07/04 12:11:57;;;;;;;8.00;7.30;;;25.80;93.50;;;;;;4991254;28;20098;-31
2021/07/04 12:14:26;;;;;;;11.60;8.73;;;25.90;93.20;;;;;;4991554;28;20045;-32
2021/07/04 12:16:54;;;;;;;9.32;8.43;;;26.10;93.00;;;;;;4991056;28;20038;-32
2021/07/04 12:19:32;;;;;;;8.25;7.55;;;26.10;93.10;;;;;;4991908;28;20015;-31
2021/07/04 12:21:59;;;;;;;9.02;8.13;;;26.10;92.80;;;;;;4991366;28;20108;-31
2021/07/04 12:24:32;;;;;;;8.32;7.35;;;26.20;92.80;;;;;;4991122;28;20046;-32
2021/07/04 12:26:58;;;;;;;8.15;7.35;;;26.20;92.60;;;;;;4991011;28;20037;-31
2021/07/04 12:29:23;;;;;;;7.22;6.53;;;26.20;92.80;;;;;;4991465;28;20023;-32
2021/07/04 12:32:07;;;;;;;6.95;6.28;;;26.30;92.70;;;;;;4990795;28;20022;-31
2021/07/04 12:34:39;;;;;;;6.70;6.00;;;26.40;92.80;;;;;;4991986;28;20026;-30
2021/07/04 12:37:05;;;;;;;;;;;26.50;92.80;;;;;;4990431;28;20027;-31
2021/07/04 12:39:32;;;;;;;6.57;5.97;;;26.50;92.40;;;;;;4990777;28;20357;-31
2021/07/04 12:41:58;;;;;;;7.63;6.90;;;26.50;92.20;;;;;;4991149;28;20048;-33
2021/07/04 12:44:24;;;;;;;6.95;6.25;;;26.70;92.40;;;;;;4991800;28;20026;-31
2021/07/04 12:46:49;;;;;;;7.55;6.78;;;26.70;92.30;;;;;;4990607;28;20023;-32